createdAt,value
2018-06-05T00:00:13.058Z,9.53
2018-06-05T00:02:41.292Z,13.88
2018-06-05T00:05:09.612Z,9.28
2018-06-05T00:07:37.867Z,10.55
2018-06-05T00:10:06.151Z,8.85
2018-06-05T00:12:34.366Z,9.68
2018-06-05T00:15:02.743Z,11.55
2018-06-05T00:17:31.031Z,10.18
2018-06-05T00:19:59.263Z,10.72
2018-06-05T00:22:27.524Z,11.08
2018-06-05T00:24:55.813Z,11.78
2018-06-05T00:27:24.043Z,13.13
2018-06-05T00:29:52.313Z,11.18
2018-06-05T00:32:20.512Z,9.45
2018-06-05T00:34:48.760Z,11.60
2018-06-05T00:37:16.988Z,9.63
2018-06-05T00:39:45.222Z,11.30
2018-06-05T00:42:13.472Z,10.70
2018-06-05T00:44:41.681Z,9.50
2018-06-05T00:47:09.919Z,9.73
2018-06-05T00:49:38.164Z,15.53
2018-06-05T00:52:08.027Z,12.13
2018-06-05T00:54:36.296Z,12.28
2018-06-05T00:57:04.756Z,12.13
2018-06-05T00:59:32.996Z,10.72
2018-06-05T01:02:01.464Z,10.80
2018-06-05T01:04:29.708Z,11.85
2018-06-05T01:06:57.931Z,12.00
2018-06-05T01:09:26.173Z,14.07
2018-06-05T01:11:54.446Z,12.10
2018-06-05T01:14:22.724Z,15.05
2018-06-05T01:16:50.968Z,11.18
2018-06-05T01:19:19.184Z,10.28
2018-06-05T01:21:47.545Z,11.00
2018-06-05T01:24:15.814Z,12.98
2018-06-05T01:26:44.039Z,13.03
2018-06-05T01:29:12.282Z,11.70
2018-06-05T01:31:40.518Z,13.60
2018-06-05T01:34:08.477Z,12.60
2018-06-05T01:36:36.696Z,11.12
2018-06-05T01:39:08.534Z,13.10
2018-06-05T01:41:37.297Z,12.43
2018-06-05T01:44:05.707Z,13.55
2018-06-05T01:46:33.960Z,14.50
2018-06-05T01:49:02.207Z,14.75
2018-06-05T01:51:30.415Z,11.83
2018-06-05T01:53:58.399Z,15.10
2018-06-05T01:56:26.663Z,12.70
2018-06-05T01:58:54.941Z,12.50
2018-06-05T02:01:29.993Z,14.50
2018-06-05T02:03:58.254Z,14.15
2018-06-05T02:06:26.249Z,14.25
2018-06-05T02:08:56.387Z,14.30
2018-06-05T02:11:24.743Z,14.53
2018-06-05T02:13:52.984Z,13.43
2018-06-05T02:16:21.225Z,14.93
2018-06-05T02:18:49.499Z,13.53
2018-06-05T02:21:17.963Z,12.33
2018-06-05T02:23:46.190Z,12.40
2018-06-05T02:26:14.439Z,13.75
2018-06-05T02:28:43.096Z,15.15
2018-06-05T02:31:11.366Z,14.13
2018-06-05T02:33:39.619Z,12.43
2018-06-05T02:36:07.831Z,13.58
2018-06-05T02:38:36.098Z,14.65
2018-06-05T02:41:04.534Z,15.95
2018-06-05T02:43:32.983Z,16.02
2018-06-05T02:46:01.264Z,15.28
2018-06-05T02:48:29.475Z,16.20
2018-06-05T02:50:57.489Z,15.78
2018-06-05T02:53:25.707Z,16.67
2018-06-05T02:55:53.959Z,17.60
2018-06-05T02:58:22.272Z,16.67
2018-06-05T03:00:50.758Z,22.87
2018-06-05T03:03:19.017Z,15.35
2018-06-05T03:05:47.278Z,17.67
2018-06-05T03:08:16.259Z,17.75
2018-06-05T03:10:45.095Z,16.17
2018-06-05T03:13:13.340Z,20.85
2018-06-05T03:15:41.565Z,19.70
2018-06-05T03:18:09.804Z,19.67
2018-06-05T03:20:41.643Z,17.70
2018-06-05T03:23:09.871Z,17.62
2018-06-05T03:25:38.399Z,19.07
2018-06-05T03:28:06.614Z,18.67
2018-06-05T03:30:34.895Z,17.20
2018-06-05T03:33:03.480Z,20.27
2018-06-05T03:35:31.754Z,21.85
2018-06-05T03:37:59.983Z,26.13
2018-06-05T03:40:28.767Z,18.50
2018-06-05T03:42:57.677Z,19.00
2018-06-05T03:45:25.913Z,17.92
2018-06-05T03:47:54.147Z,17.48
2018-06-05T03:50:22.388Z,20.88
2018-06-05T03:52:50.580Z,19.02
2018-06-05T03:55:18.844Z,21.02
2018-06-05T03:57:47.429Z,19.45
2018-06-05T04:00:15.748Z,19.92
2018-06-05T04:02:43.988Z,18.20
2018-06-05T04:05:13.069Z,20.30
2018-06-05T04:07:41.362Z,19.17
2018-06-05T04:10:09.604Z,19.27
2018-06-05T04:12:37.810Z,18.82
2018-06-05T04:15:06.012Z,17.80
2018-06-05T04:17:34.691Z,18.92
2018-06-05T04:20:03.008Z,19.32
2018-06-05T04:22:31.305Z,19.27
2018-06-05T04:24:59.519Z,19.12
2018-06-05T04:27:27.860Z,19.27
2018-06-05T04:29:57.219Z,20.08
2018-06-05T04:32:25.495Z,18.87
2018-06-05T04:34:53.747Z,21.68
2018-06-05T04:37:21.976Z,15.20
2018-06-05T04:39:50.265Z,18.00
2018-06-05T04:42:18.543Z,16.40
2018-06-05T04:44:46.735Z,15.13
2018-06-05T04:47:15.277Z,17.12
2018-06-05T04:49:43.491Z,13.95
2018-06-05T04:52:11.765Z,13.85
2018-06-05T04:54:40.066Z,16.23
2018-06-05T04:57:08.243Z,13.13
2018-06-05T04:59:37.535Z,15.40
2018-06-05T05:02:05.799Z,17.73
2018-06-05T05:04:34.012Z,16.77
2018-06-05T05:07:02.252Z,16.90
2018-06-05T05:09:30.499Z,16.95
2018-06-05T05:11:58.741Z,15.03
2018-06-05T05:14:27.014Z,15.08
2018-06-05T05:16:55.280Z,16.37
2018-06-05T05:19:23.539Z,15.13
2018-06-05T05:21:51.819Z,15.75
2018-06-05T05:24:20.037Z,20.10
2018-06-05T05:26:50.099Z,16.35
2018-06-05T05:29:18.335Z,15.72
2018-06-05T05:31:46.865Z,18.05
2018-06-05T05:34:16.327Z,16.30
2018-06-05T05:36:44.815Z,17.40
2018-06-05T05:39:13.070Z,15.83
2018-06-05T05:41:41.359Z,18.17
2018-06-05T05:44:09.869Z,15.00
2018-06-05T05:46:40.787Z,16.60
2018-06-05T05:49:09.173Z,19.10
2018-06-05T05:51:37.373Z,17.17
2018-06-05T05:54:12.050Z,14.80
2018-06-05T05:56:40.295Z,16.62
2018-06-05T05:59:08.487Z,17.48
2018-06-05T06:01:36.754Z,16.25
2018-06-05T06:04:06.051Z,17.37
2018-06-05T06:06:34.271Z,18.27
2018-06-05T06:09:02.958Z,13.32
2018-06-05T06:11:31.275Z,17.82
2018-06-05T06:13:59.591Z,14.00
2018-06-05T06:16:27.882Z,18.50
2018-06-05T06:18:56.149Z,15.63
2018-06-05T06:21:26.369Z,17.52
2018-06-05T06:23:54.556Z,19.52
2018-06-05T06:26:22.858Z,15.93
2018-06-05T06:28:51.118Z,19.10
2018-06-05T06:31:19.366Z,17.52
2018-06-05T06:33:47.580Z,18.40
2018-06-05T06:36:15.844Z,16.90
2018-06-05T06:38:44.503Z,17.42
2018-06-05T06:41:12.764Z,16.25
2018-06-05T06:43:40.995Z,16.57
2018-06-05T06:46:09.284Z,15.60
2018-06-05T06:48:37.524Z,21.33
2018-06-05T06:51:05.751Z,19.00
2018-06-05T06:53:34.669Z,13.95
2018-06-05T06:56:02.947Z,14.73
2018-06-05T06:58:31.676Z,13.58
2018-06-05T07:01:00.210Z,15.70
2018-06-05T07:03:28.444Z,13.95
2018-06-05T07:05:56.860Z,15.85
2018-06-05T07:08:25.091Z,16.48
2018-06-05T07:10:53.391Z,15.72
2018-06-05T07:13:21.648Z,16.60
2018-06-05T07:15:50.071Z,18.87
2018-06-05T07:18:18.340Z,16.27
2018-06-05T07:20:46.608Z,13.65
2018-06-05T07:23:14.879Z,15.83
2018-06-05T07:25:43.147Z,16.07
2018-06-05T07:28:13.336Z,15.40
2018-06-05T07:30:41.537Z,14.28
2018-06-05T07:33:09.816Z,13.60
2018-06-05T07:35:38.352Z,12.95
2018-06-05T07:38:06.562Z,15.90
2018-06-05T07:40:34.831Z,15.43
2018-06-05T07:43:03.074Z,17.05
2018-06-05T07:45:31.325Z,15.15
2018-06-05T07:47:59.574Z,16.20
2018-06-05T07:50:28.512Z,17.37
2018-06-05T07:52:56.754Z,17.05
2018-06-05T07:55:24.994Z,15.53
2018-06-05T07:57:53.228Z,18.85
2018-06-05T08:00:21.790Z,16.67
2018-06-05T08:02:50.160Z,16.37
2018-06-05T08:05:18.463Z,12.68
2018-06-05T08:07:46.694Z,21.15
2018-06-05T08:10:14.926Z,14.03
2018-06-05T08:12:43.162Z,18.87
2018-06-05T08:15:11.398Z,13.45
2018-06-05T08:17:39.659Z,14.78
2018-06-05T08:20:08.797Z,15.93
2018-06-05T08:22:47.272Z,16.70
2018-06-05T08:25:15.491Z,14.20
2018-06-05T08:27:43.770Z,14.07
2018-06-05T08:30:11.987Z,14.38
2018-06-05T08:32:40.167Z,13.50
2018-06-05T08:35:08.780Z,12.65
2018-06-05T08:37:36.997Z,12.05
2018-06-05T08:40:05.311Z,12.88
2018-06-05T08:42:33.586Z,15.23
2018-06-05T08:45:01.816Z,11.80
2018-06-05T08:47:30.065Z,14.33
2018-06-05T08:49:58.338Z,15.43
2018-06-05T08:52:26.559Z,12.95
2018-06-05T08:54:54.826Z,14.38
2018-06-05T08:57:23.063Z,17.60
2018-06-05T08:59:51.358Z,12.47
2018-06-05T09:02:19.567Z,14.07
2018-06-05T09:04:48.148Z,17.10
2018-06-05T09:07:16.415Z,12.93
2018-06-05T09:09:44.857Z,13.60
2018-06-05T09:12:13.783Z,14.05
2018-06-05T09:14:42.035Z,15.00
2018-06-05T09:17:11.219Z,14.13
2018-06-05T09:19:39.467Z,14.73
2018-06-05T09:22:07.699Z,16.52
2018-06-05T09:24:35.959Z,15.53
2018-06-05T09:27:04.584Z,12.78
2018-06-05T09:29:33.653Z,15.65
2018-06-05T09:32:01.880Z,12.33
2018-06-05T09:34:30.134Z,13.62
2018-06-05T09:36:58.375Z,11.38
2018-06-05T09:39:26.568Z,15.53
2018-06-05T09:41:55.178Z,11.22
2018-06-05T09:44:23.412Z,15.88
2018-06-05T09:46:51.692Z,12.30
2018-06-05T09:49:20.811Z,13.13
2018-06-05T09:51:48.838Z,12.05
2018-06-05T09:54:17.118Z,14.15
2018-06-05T09:56:45.378Z,14.78
2018-06-05T09:59:13.632Z,12.13
2018-06-05T10:01:41.835Z,12.85
2018-06-05T10:04:10.109Z,13.98
2018-06-05T10:06:38.308Z,10.48
2018-06-05T10:09:07.439Z,18.55
2018-06-05T10:11:35.713Z,12.55
2018-06-05T10:14:04.003Z,11.97
2018-06-05T10:16:32.157Z,12.75
2018-06-05T10:19:00.768Z,10.43
2018-06-05T10:21:29.012Z,10.40
2018-06-05T10:23:57.282Z,12.85
2018-06-05T10:26:25.544Z,11.63
2018-06-05T10:28:53.803Z,10.38
2018-06-05T10:31:22.078Z,10.98
2018-06-05T10:33:50.339Z,11.33
2018-06-05T10:36:18.545Z,11.65
2018-06-05T10:38:46.839Z,12.40
2018-06-05T10:41:15.215Z,10.35
2018-06-05T10:43:43.791Z,9.80
2018-06-05T10:46:12.069Z,10.50
2018-06-05T10:48:40.335Z,10.68
2018-06-05T10:51:08.574Z,11.43
2018-06-05T10:53:36.819Z,13.35
2018-06-05T10:56:05.091Z,7.50
2018-06-05T10:58:33.363Z,9.90
2018-06-05T11:01:02.147Z,8.88
2018-06-05T11:03:30.408Z,8.33
2018-06-05T11:05:58.732Z,10.50
2018-06-05T11:08:26.948Z,9.18
2018-06-05T11:10:57.088Z,8.30
2018-06-05T11:13:25.339Z,7.78
2018-06-05T11:15:53.658Z,6.67
2018-06-05T11:18:21.910Z,8.55
2018-06-05T11:20:50.311Z,6.42
2018-06-05T11:23:18.571Z,6.22
2018-06-05T11:25:46.872Z,7.60
2018-06-05T11:28:15.059Z,6.47
2018-06-05T11:30:43.341Z,6.33
2018-06-05T11:33:11.612Z,8.23
2018-06-05T11:35:39.886Z,6.25
2018-06-05T11:38:08.160Z,5.08
2018-06-05T11:40:36.475Z,6.45
2018-06-05T11:43:05.190Z,6.37
2018-06-05T11:45:33.459Z,5.80
2018-06-05T11:48:03.087Z,5.90
2018-06-05T11:50:31.299Z,6.00
2018-06-05T11:52:59.599Z,5.20
2018-06-05T11:55:27.864Z,4.90
2018-06-05T11:57:56.329Z,6.03
2018-06-05T12:00:24.670Z,6.42
2018-06-05T12:02:53.192Z,6.33
2018-06-05T12:05:21.503Z,5.30
2018-06-05T12:07:50.363Z,5.40
2018-06-05T12:10:18.644Z,5.45
2018-06-05T12:12:46.875Z,5.37
2018-06-05T12:15:15.367Z,5.20
2018-06-05T12:17:43.616Z,5.70
2018-06-05T12:20:11.843Z,7.62
2018-06-05T12:22:40.080Z,5.83
2018-06-05T12:25:08.310Z,5.50
2018-06-05T12:27:36.554Z,4.90
2018-06-05T12:30:05.147Z,6.45
2018-06-05T12:32:33.428Z,5.75
2018-06-05T12:35:02.391Z,4.75
2018-06-05T12:37:30.579Z,5.10
2018-06-05T12:39:58.821Z,7.58
2018-06-05T12:42:27.065Z,5.10
2018-06-05T12:44:55.312Z,5.25
2018-06-05T12:47:23.556Z,4.35
2018-06-05T12:49:51.528Z,5.83
2018-06-05T12:52:19.771Z,7.00
2018-06-05T12:54:48.244Z,4.80
2018-06-05T12:57:16.803Z,4.22
2018-06-05T12:59:44.958Z,4.45
2018-06-05T13:02:13.211Z,4.37
2018-06-05T13:04:42.119Z,5.37
2018-06-05T13:07:11.518Z,4.55
2018-06-05T13:09:39.759Z,4.97
2018-06-05T13:12:08.818Z,5.15
2018-06-05T13:14:37.048Z,4.67
2018-06-05T13:17:05.254Z,4.30
2018-06-05T13:19:33.526Z,4.47
2018-06-05T13:22:01.787Z,4.90
2018-06-05T13:24:30.026Z,5.05
2018-06-05T13:27:03.482Z,3.85
2018-06-05T13:29:31.922Z,3.75
2018-06-05T13:32:00.202Z,4.10
2018-06-05T13:34:28.471Z,4.28
2018-06-05T13:36:56.701Z,3.95
2018-06-05T13:39:24.885Z,5.10
2018-06-05T13:41:53.095Z,4.25
2018-06-05T13:44:21.307Z,4.53
2018-06-05T13:46:49.490Z,4.20
2018-06-05T13:49:17.736Z,4.50
2018-06-05T13:51:46.004Z,3.60
2018-06-05T13:54:14.298Z,6.55
2018-06-05T13:56:42.523Z,3.87
2018-06-05T13:59:10.783Z,3.90
2018-06-05T14:01:39.087Z,3.98
2018-06-05T14:04:07.326Z,4.25
2018-06-05T14:06:35.915Z,5.10
2018-06-05T14:09:06.883Z,4.15
2018-06-05T14:11:35.069Z,4.70
2018-06-05T14:14:03.784Z,4.45
2018-06-05T14:16:32.380Z,3.77
2018-06-05T14:19:00.646Z,3.87
2018-06-05T14:21:29.792Z,4.40
2018-06-05T14:23:58.527Z,4.67
2018-06-05T14:26:26.767Z,3.92
2018-06-05T14:28:55.012Z,3.98
2018-06-05T14:31:23.192Z,6.33
2018-06-05T14:33:51.398Z,4.62
2018-06-05T14:36:19.649Z,4.67
2018-06-05T14:38:48.426Z,5.12
2018-06-05T14:41:16.984Z,4.80
2018-06-05T14:43:44.977Z,4.50
2018-06-05T14:46:13.250Z,4.72
2018-06-05T14:48:41.463Z,4.67
2018-06-05T14:51:09.683Z,4.83
2018-06-05T14:53:38.299Z,7.35
2018-06-05T14:56:06.540Z,3.90
2018-06-05T14:58:35.329Z,4.10
2018-06-05T15:01:03.572Z,5.05
2018-06-05T15:03:31.779Z,4.53
2018-06-05T15:06:00.019Z,3.92
2018-06-05T15:08:28.320Z,4.25
2018-06-05T15:10:56.564Z,3.55
2018-06-05T15:13:26.563Z,4.08
2018-06-05T15:15:54.796Z,4.12
2018-06-05T15:18:23.028Z,3.85
2018-06-05T15:20:51.267Z,3.70
2018-06-05T15:23:19.545Z,3.62
2018-06-05T15:25:48.081Z,4.22
2018-06-05T15:28:16.315Z,3.92
2018-06-05T15:30:44.986Z,4.10
2018-06-05T15:33:13.240Z,4.90
2018-06-05T15:35:41.499Z,3.77
2018-06-05T15:38:09.725Z,3.58
2018-06-05T15:40:38.019Z,3.90
2018-06-05T15:43:06.303Z,3.47
2018-06-05T15:45:34.570Z,4.33
2018-06-05T15:48:02.851Z,3.95
2018-06-05T15:50:31.198Z,3.62
2018-06-05T15:52:59.871Z,5.00
2018-06-05T15:55:28.467Z,4.15
2018-06-05T15:57:57.412Z,3.90
2018-06-05T16:00:25.596Z,3.92
2018-06-05T16:02:53.804Z,5.03
2018-06-05T16:05:21.986Z,6.17
2018-06-05T16:07:51.315Z,3.85
2018-06-05T16:10:19.589Z,3.98
2018-06-05T16:12:47.858Z,3.80
2018-06-05T16:15:16.102Z,3.92
2018-06-05T16:17:44.303Z,3.17
2018-06-05T16:20:12.673Z,4.20
2018-06-05T16:22:40.938Z,3.60
2018-06-05T16:25:09.170Z,2.87
2018-06-05T16:27:38.232Z,3.67
2018-06-05T16:30:07.103Z,3.80
2018-06-05T16:32:35.312Z,3.20
2018-06-05T16:35:03.655Z,3.00
2018-06-05T16:37:31.877Z,3.83
2018-06-05T16:40:00.104Z,2.77
2018-06-05T16:42:28.399Z,3.37
2018-06-05T16:44:56.688Z,3.58
2018-06-05T16:47:25.464Z,2.98
2018-06-05T16:49:53.450Z,3.25
2018-06-05T16:52:22.036Z,5.53
2018-06-05T16:54:50.291Z,3.33
2018-06-05T16:57:18.880Z,3.22
2018-06-05T16:59:47.127Z,3.20
2018-06-05T17:02:15.544Z,3.05
2018-06-05T17:04:43.797Z,3.77
2018-06-05T17:07:12.004Z,2.95
2018-06-05T17:09:40.256Z,3.12
2018-06-05T17:12:08.677Z,2.40
2018-06-05T17:14:36.915Z,2.98
2018-06-05T17:17:05.160Z,2.72
2018-06-05T17:19:34.492Z,2.65
2018-06-05T17:22:02.712Z,2.47
2018-06-05T17:24:30.682Z,1.87
2018-06-05T17:26:58.887Z,1.92
2018-06-05T17:29:27.175Z,2.92
2018-06-05T17:31:55.551Z,1.82
2018-06-05T17:34:23.880Z,1.87
2018-06-05T17:36:52.096Z,2.62
2018-06-05T17:39:20.346Z,2.62
2018-06-05T17:41:48.576Z,1.92
2018-06-05T17:44:17.083Z,2.80
2018-06-05T17:46:45.425Z,2.17
2018-06-05T17:49:13.738Z,3.17
2018-06-05T17:51:42.996Z,1.42
2018-06-05T17:54:11.593Z,1.60
2018-06-05T17:56:39.807Z,1.67
2018-06-05T17:59:08.108Z,4.60
2018-06-05T18:01:36.283Z,2.10
2018-06-05T18:04:05.084Z,2.00
2018-06-05T18:06:33.380Z,2.83
2018-06-05T18:09:02.506Z,2.15
2018-06-05T18:11:30.755Z,2.02
2018-06-05T18:13:58.975Z,2.22
2018-06-05T18:16:27.203Z,2.45
2018-06-05T18:18:55.474Z,2.52
2018-06-05T18:21:23.696Z,2.90
2018-06-05T18:23:51.932Z,2.65
2018-06-05T18:26:20.207Z,2.77
2018-06-05T18:28:48.497Z,2.77
2018-06-05T18:31:16.729Z,2.72
2018-06-05T18:33:44.921Z,3.02
2018-06-05T18:36:13.148Z,2.80
2018-06-05T18:38:41.655Z,3.08
2018-06-05T18:41:10.223Z,2.75
2018-06-05T18:43:38.749Z,2.80
2018-06-05T18:46:06.928Z,2.95
2018-06-05T18:48:35.176Z,2.50
2018-06-05T18:51:06.665Z,3.20
2018-06-05T18:53:34.916Z,5.40
2018-06-05T18:56:03.207Z,3.77
2018-06-05T18:58:31.488Z,3.80
2018-06-05T19:00:59.706Z,3.42
2018-06-05T19:03:27.983Z,3.87
2018-06-05T19:05:56.266Z,4.55
2018-06-05T19:08:24.537Z,4.92
2018-06-05T19:10:53.260Z,4.60
2018-06-05T19:13:21.543Z,4.60
2018-06-05T19:15:49.812Z,4.60
2018-06-05T19:18:18.081Z,6.05
2018-06-05T19:20:46.873Z,8.03
2018-06-05T19:23:15.253Z,6.85
2018-06-05T19:25:43.941Z,7.85
2018-06-05T19:28:12.235Z,7.28
2018-06-05T19:30:41.074Z,9.13
2018-06-05T19:33:09.087Z,7.35
2018-06-05T19:35:37.328Z,7.58
2018-06-05T19:38:05.632Z,12.23
2018-06-05T19:40:33.955Z,8.60
2018-06-05T19:43:02.268Z,11.10
2018-06-05T19:45:31.436Z,9.28
2018-06-05T19:47:59.719Z,8.70
2018-06-05T19:50:27.983Z,7.85
2018-06-05T19:52:56.188Z,8.98
2018-06-05T19:55:24.517Z,8.90
2018-06-05T19:57:52.774Z,8.83
2018-06-05T20:00:21.058Z,8.18
2018-06-05T20:02:49.489Z,8.60
2018-06-05T20:05:17.779Z,8.63
2018-06-05T20:07:48.348Z,8.63
2018-06-05T20:10:16.792Z,7.80
2018-06-05T20:12:45.312Z,9.45
2018-06-05T20:15:14.694Z,8.25
2018-06-05T20:17:42.964Z,9.33
2018-06-05T20:20:11.247Z,8.18
2018-06-05T20:22:39.516Z,9.25
2018-06-05T20:25:07.766Z,9.50
2018-06-05T20:27:36.011Z,8.20
2018-06-05T20:30:04.663Z,12.50
2018-06-05T20:32:32.902Z,9.13
2018-06-05T20:35:01.187Z,9.90
2018-06-05T20:37:29.846Z,10.15
2018-06-05T20:39:58.134Z,9.18
2018-06-05T20:42:26.388Z,10.75
2018-06-05T20:44:54.689Z,9.88
2018-06-05T20:47:23.209Z,10.05
2018-06-05T20:49:51.559Z,9.68
2018-06-05T20:52:19.801Z,8.55
2018-06-05T20:54:48.054Z,10.25
2018-06-05T20:57:16.277Z,11.70
2018-06-05T20:59:44.575Z,10.85
2018-06-05T21:02:12.808Z,12.43
2018-06-05T21:04:41.044Z,10.55
2018-06-05T21:07:09.722Z,11.05
2018-06-05T21:09:37.998Z,10.53
2018-06-05T21:12:06.205Z,11.15
2018-06-05T21:14:34.687Z,12.23
2018-06-05T21:17:02.930Z,11.78
2018-06-05T21:19:31.406Z,15.10
2018-06-05T21:21:59.655Z,11.65
2018-06-05T21:24:27.949Z,13.70
2018-06-05T21:26:56.223Z,14.13
2018-06-05T21:29:25.471Z,15.28
2018-06-05T21:31:53.763Z,13.35
2018-06-05T21:34:22.003Z,15.65
2018-06-05T21:36:50.265Z,14.73
2018-06-05T21:39:18.599Z,16.65
2018-06-05T21:41:47.143Z,12.50
2018-06-05T21:44:15.380Z,14.58
2018-06-05T21:46:43.644Z,17.23
2018-06-05T21:49:11.913Z,14.50
2018-06-05T21:51:40.155Z,14.28
2018-06-05T21:54:08.492Z,15.25
2018-06-05T21:56:36.739Z,15.10
2018-06-05T21:59:05.019Z,16.32
2018-06-05T22:01:33.281Z,16.45
2018-06-05T22:04:01.502Z,15.23
2018-06-05T22:06:29.765Z,14.90
2018-06-05T22:08:57.995Z,15.32
2018-06-05T22:11:26.219Z,15.60
2018-06-05T22:13:54.465Z,14.87
2018-06-05T22:16:22.747Z,16.73
2018-06-05T22:18:50.991Z,15.18
2018-06-05T22:21:19.226Z,15.48
2018-06-05T22:23:47.491Z,15.35
2018-06-05T22:26:15.789Z,15.18
2018-06-05T22:28:44.077Z,16.50
2018-06-05T22:31:12.351Z,15.93
2018-06-05T22:33:40.570Z,16.67
2018-06-05T22:36:08.795Z,16.57
2018-06-05T22:38:37.099Z,15.45
2018-06-05T22:41:05.583Z,17.02
2018-06-05T22:43:33.815Z,15.18
2018-06-05T22:46:02.453Z,15.90
2018-06-05T22:48:30.698Z,17.57
2018-06-05T22:50:58.976Z,16.87
2018-06-05T22:53:27.547Z,15.70
2018-06-05T22:55:55.762Z,16.30
2018-06-05T22:58:23.962Z,17.50
2018-06-05T23:00:52.227Z,14.15
2018-06-05T23:03:20.494Z,15.10
2018-06-05T23:05:48.888Z,14.10
2018-06-05T23:08:17.988Z,13.38
2018-06-05T23:10:46.247Z,13.68
2018-06-05T23:13:14.471Z,15.58
2018-06-05T23:15:42.745Z,17.17
2018-06-05T23:18:11.007Z,16.45
2018-06-05T23:20:39.263Z,15.83
2018-06-05T23:23:08.406Z,14.70
2018-06-05T23:25:36.648Z,16.42
2018-06-05T23:28:05.319Z,14.07
2018-06-05T23:30:33.547Z,14.25
2018-06-05T23:33:01.779Z,16.27
2018-06-05T23:35:29.984Z,15.88
2018-06-05T23:37:58.988Z,15.58
2018-06-05T23:40:27.252Z,15.18
2018-06-05T23:42:55.720Z,12.98
2018-06-05T23:45:23.662Z,14.07
2018-06-05T23:47:51.928Z,15.85
2018-06-05T23:50:20.111Z,17.40
2018-06-05T23:52:48.641Z,14.47
2018-06-05T23:55:17.631Z,16.50
2018-06-05T23:57:46.751Z,17.62
